Cheek, Texas
Current Conditions -  °F | °C
As of 3:53 PM on Sunday 23 Nov 2014 (Local Time) from KBPT Reporting Station
Clear Clear  
Wind Chill: 72°   Ceiling: Unl
Heat Index: 72°   Visibility: 10mi
Dew Point: 61°   Wind: 12mph
Humidity: 68%   Direction: 190°S
Pressure: 29.55"   Gusts: NA
Location:  29.9571°N, 94.1363°W
Report Text: KBPT 232153Z 19010KT 10SM CLR 22/16 A2955 RMK AO2 SLP006 T02220161
Loading
Personal Weather Stations






























Interactive Weather Map New forecast layout! Learn more

10-Day Weather Forecast

Advertisements
Track Severe Weather on mobile